WetterOnline ( https://www.wetteronline.de )

Wetter aktuell Oberding

Aktuelles Wetter: Weihenstephan-Dürnast (478m)

6-stündlich | Neueste Meldungen
Ortszeit Temperatur Wetter
Di, 18.05. 20:00 11.7° C leicht bewölkt
Di, 18.05. 14:00 8.7° C leichter Regen
Di, 18.05. 8:00 9.2° C bedeckt
Di, 18.05. 2:00 8.9° C bedeckt
Mo, 17.05. 20:00 9.4° C leicht bewölkt
Mo, 17.05. 14:00 10.9° C wolkig
Mo, 17.05. 8:00 9.1° C leichter Regen
Mo, 17.05. 2:00 9.5° C wolkig
Ortszeit Temperatur Wetter
Mi, 19.05. 1:30 7.6° C bewölkt
Mi, 19.05. 1:10 7.6° C bewölkt
Mi, 19.05. 1:00 7.9° C bewölkt
Mi, 19.05. 0:50 7.9° C bewölkt
Mi, 19.05. 0:40 7.6° C bewölkt
Mi, 19.05. 0:30 7.5° C bewölkt
Mi, 19.05. 0:00 7.7° C bewölkt
Di, 18.05. 18:00 11.6° C bedeckt
Ortszeit Relative Feuchte Sichtweite
Di, 18.05. 20:00 68% 60 km
Di, 18.05. 14:00 92% 30 km
Di, 18.05. 8:00 84% >70 km
Di, 18.05. 2:00 83% >70 km
Mo, 17.05. 20:00 79% >70 km
Mo, 17.05. 14:00 86% >70 km
Mo, 17.05. 8:00 81% 45 km
Mo, 17.05. 2:00 82% >70 km
Ortszeit Relative Feuchte Sichtweite
Mi, 19.05. 1:30 89% >70 km
Mi, 19.05. 1:10 90% -
Mi, 19.05. 1:00 90% >70 km
Mi, 19.05. 0:50 90% -
Mi, 19.05. 0:40 93% -
Mi, 19.05. 0:30 94% 65 km
Mi, 19.05. 0:00 93% 65 km
Di, 18.05. 18:00 61% >70 km
Ortszeit Niederschlagsmenge Niederschlagsart
Di, 18.05. 20:00 3 l/m2 in 12 Std. Regen
Di, 18.05. 14:00 3 l/m2 in 6 Std. Regen
Di, 18.05. 8:00 0.5 l/m2 in 12 Std. Regen
Di, 18.05. 2:00 0.4 l/m2 in 6 Std. Regen
Mo, 17.05. 20:00 7 l/m2 in 12 Std. Regen
Mo, 17.05. 14:00 4 l/m2 in 6 Std. Regen
Mo, 17.05. 8:00 0.1 l/m2 in 12 Std. Regen
Mo, 17.05. 2:00 0.1 l/m2 in 6 Std. Regen
Ortszeit Niederschlagsmenge Niederschlagsart
Mi, 19.05. 1:30 0.0 l/m2 in 1 Std. -
Mi, 19.05. 1:10 keine Meldung -
Mi, 19.05. 1:00 0.0 l/m2 in 1 Std. -
Mi, 19.05. 0:50 keine Meldung -
Mi, 19.05. 0:40 keine Meldung -
Mi, 19.05. 0:30 0.0 l/m2 in 1 Std. -
Mi, 19.05. 0:00 0.0 l/m2 in 1 Std. -
Di, 18.05. 18:00 keine Meldung -
Ortszeit Stärke Spitze Richtung
km/h Bft. km/h Grad Sektor
Di, 18.05. 20:00 7 2 59 270° W
Di, 18.05. 14:00 19 3 44 260° W
Di, 18.05. 8:00 22 4 36 260° W
Di, 18.05. 2:00 22 4 40 260° W
Mo, 17.05. 20:00 15 3 63 260° W
Mo, 17.05. 14:00 14 3 61 290° W
Mo, 17.05. 8:00 25 4 40 250° W
Mo, 17.05. 2:00 14 3 29 240° SW
Ortszeit Stärke Spitze Richtung
km/h Bft. km/h Grad Sektor
Mi, 19.05. 1:30 11 2 18 270° W
Mi, 19.05. 1:10 13 3 - 270° W
Mi, 19.05. 1:00 13 3 15 260° W
Mi, 19.05. 0:50 13 3 - 260° W
Mi, 19.05. 0:40 7 2 - 270° W
Mi, 19.05. 0:30 6 1 11 260° W
Mi, 19.05. 0:00 4 1 7 250° W
Di, 18.05. 18:00 7 2 29 290° W
Ortszeit Untergrenze Bedeckung Gattung
total tief tief mittel hoch
Di, 18.05. 20:00 3000 m 3/8 3/8 - - -
Di, 18.05. 14:00 600 m 8/8 8/8 - - -
Di, 18.05. 8:00 540 m 8/8 8/8 - - -
Di, 18.05. 2:00 1800 m 8/8 8/8 - - -
Mo, 17.05. 20:00 1500 m 3/8 1/8 - - -
Mo, 17.05. 14:00 1080 m 7/8 2/8 - - -
Mo, 17.05. 8:00 1200 m 7/8 7/8 - - -
Mo, 17.05. 2:00 1800 m 7/8 2/8 - - -
Ortszeit Bedeckungsgrad in Achtel und Wolkenuntergrenze
Mi, 19.05. 1:30 6(1500m) 7(2100m) 8(4200m)
Mi, 19.05. 1:10 6(1500m) 7(2100m) 8(4200m)
Mi, 19.05. 1:00 7(1500m) 7(2100m) 8(4200m)
Mi, 19.05. 0:50 7(1500m) 7(2100m) 8(4200m)
Mi, 19.05. 0:40 6(1500m) 6(2100m) 8(4200m)
Mi, 19.05. 0:30 3(1320m) 5(2100m) 8(4200m)
Mi, 19.05. 0:00 7(1800m) 8(4200m) 8(4800m)
Di, 18.05. 18:00 2(3600m) 7(5400m) 8(6000m)
Ortszeit Luftdruck NN (hPa) Tendenz (hPa in 3 Std.)
Di, 18.05. 20:00 1014 - 0,9
Di, 18.05. 14:00 1016 + 0,3
Di, 18.05. 8:00 1015 + 1,3
Di, 18.05. 2:00 1013 + 0,5
Mo, 17.05. 20:00 1011 + 1,2
Mo, 17.05. 14:00 1009 + 0,7
Mo, 17.05. 8:00 1008 + 1,1
Mo, 17.05. 2:00 1006 + 0,4
Ortszeit Luftdruck NN (hPa) Tendenz (hPa in 3 Std.)
Mi, 19.05. 1:30 1016 + 0,4
Mi, 19.05. 1:10 1016 keine Meldung
Mi, 19.05. 1:00 1016 + 0,4
Mi, 19.05. 0:50 1016 keine Meldung
Mi, 19.05. 0:40 1016 keine Meldung
Mi, 19.05. 0:30 1016 + 0,6
Mi, 19.05. 0:00 1016 + 0,7
Di, 18.05. 18:00 1014 - 0,8
Ortszeit Schneehöhe (cm)
Di, 18.05. 20:00 0
Di, 18.05. 14:00 0
Di, 18.05. 8:00 0
Di, 18.05. 2:00 0
Mo, 17.05. 20:00 0
Mo, 17.05. 14:00 0
Mo, 17.05. 8:00 0
Mo, 17.05. 2:00 0
Ortszeit Schneehöhe (cm)
Mi, 19.05. 1:30 0
Mi, 19.05. 1:10 0
Mi, 19.05. 1:00 0
Mi, 19.05. 0:50 0
Mi, 19.05. 0:40 0
Mi, 19.05. 0:30 0
Mi, 19.05. 0:00 0
Di, 18.05. 18:00 -
Link zu dieser Seite / Seite empfehlen

Das Wetter in ...